createdAt,value
2023-01-09T00:01:15.851Z,92.48
2023-01-09T00:03:48.279Z,92.30
2023-01-09T00:06:14.886Z,92.37
2023-01-09T00:08:43.415Z,92.34
2023-01-09T00:11:11.517Z,92.41
2023-01-09T00:13:39.932Z,92.29
2023-01-09T00:16:10.515Z,92.30
2023-01-09T00:18:38.739Z,92.38
2023-01-09T00:21:09.336Z,92.20
2023-01-09T00:23:39.359Z,92.05
2023-01-09T00:29:03.292Z,92.05
2023-01-09T00:31:30.070Z,92.44
2023-01-09T00:36:55.360Z,91.78
2023-01-09T00:39:24.245Z,91.79
2023-01-09T00:42:19.512Z,92.02
2023-01-09T00:44:55.958Z,91.73
2023-01-09T00:47:33.238Z,91.92
2023-01-09T00:50:05.576Z,91.83
2023-01-09T00:53:25.236Z,91.54
2023-01-09T00:58:29.487Z,91.58
2023-01-09T01:00:59.719Z,91.91
2023-01-09T01:06:34.252Z,91.38
2023-01-09T01:09:38.393Z,91.44
2023-01-09T01:15:13.497Z,91.09
2023-01-09T01:18:05.891Z,90.64
2023-01-09T01:21:52.383Z,90.60
2023-01-09T01:23:23.151Z,90.61
2023-01-09T01:25:55.350Z,90.92
2023-01-09T01:28:22.137Z,90.58
2023-01-09T01:31:21.824Z,90.89
2023-01-09T01:34:13.012Z,91.08
2023-01-09T01:37:12.147Z,90.77
2023-01-09T01:40:06.728Z,90.78
2023-01-09T01:43:20.095Z,90.96
2023-01-09T01:45:47.701Z,90.93
2023-01-09T01:49:03.771Z,91.01
2023-01-09T01:54:36.949Z,90.26
2023-01-09T01:57:52.568Z,90.70
2023-01-09T01:59:59.028Z,90.35
2023-01-09T02:11:31.908Z,90.79
2023-01-09T02:14:22.972Z,90.95
2023-01-09T02:17:07.468Z,91.06
2023-01-09T02:26:43.667Z,91.63
2023-01-09T02:29:56.695Z,91.65
2023-01-09T02:32:44.117Z,91.98
2023-01-09T02:35:14.018Z,92.10
2023-01-09T02:38:50.139Z,92.53
2023-01-09T02:41:20.644Z,92.23
2023-01-09T02:44:15.231Z,92.47
2023-01-09T02:46:43.239Z,92.72
2023-01-09T02:50:50.631Z,92.76
2023-01-09T02:55:54.882Z,92.52
2023-01-09T02:58:49.180Z,92.52
2023-01-09T03:01:58.601Z,92.54
2023-01-09T03:08:09.840Z,92.18
2023-01-09T03:16:19.221Z,92.32
2023-01-09T03:19:58.539Z,92.41
2023-01-09T03:23:42.270Z,92.25
2023-01-09T03:26:04.347Z,92.33
2023-01-09T03:29:01.488Z,92.53
2023-01-09T03:32:00.185Z,92.26
2023-01-09T03:34:51.956Z,92.46
2023-01-09T03:38:31.863Z,92.42
2023-01-09T03:50:57.049Z,92.20
2023-01-09T03:59:30.353Z,91.97
2023-01-09T04:08:45.122Z,92.13
2023-01-09T04:14:38.973Z,91.79
2023-01-09T04:16:38.495Z,92.11
2023-01-09T04:18:16.238Z,91.59
2023-01-09T04:21:07.359Z,92.02
2023-01-09T04:28:44.097Z,91.94
2023-01-09T04:39:31.787Z,91.76
2023-01-09T04:39:52.886Z,91.90
2023-01-09T04:41:57.654Z,91.82
2023-01-09T04:43:18.888Z,91.99
2023-01-09T05:06:48.897Z,92.26
2023-01-09T05:12:25.384Z,92.13
2023-01-09T05:27:03.417Z,92.10
2023-01-09T05:44:30.933Z,92.55
2023-01-09T05:51:05.595Z,92.39
2023-01-09T05:54:30.093Z,92.05
2023-01-09T06:03:43.718Z,92.14
2023-01-09T06:14:28.754Z,92.55
2023-01-09T06:18:29.739Z,92.57
2023-01-09T06:20:58.953Z,92.45
2023-01-09T06:23:25.726Z,92.28
2023-01-09T06:25:54.943Z,92.54
2023-01-09T06:28:21.484Z,92.54
2023-01-09T06:30:52.133Z,92.45
2023-01-09T06:33:19.642Z,92.63
2023-01-09T06:35:46.418Z,92.44
2023-01-09T06:38:13.046Z,92.08
2023-01-09T06:40:39.705Z,92.43
2023-01-09T06:43:06.480Z,92.65
2023-01-09T06:45:33.095Z,92.75
2023-01-09T06:47:59.860Z,92.50
2023-01-09T06:50:26.426Z,92.83
2023-01-09T06:52:53.037Z,92.66
2023-01-09T06:55:19.803Z,92.92
2023-01-09T06:57:46.498Z,92.65
2023-01-09T07:00:13.565Z,92.94
2023-01-09T07:02:40.183Z,92.90
2023-01-09T07:05:08.687Z,93.20
2023-01-09T07:07:35.382Z,92.88
2023-01-09T07:10:02.126Z,93.34
2023-01-09T07:12:28.925Z,93.30
2023-01-09T07:14:57.597Z,93.67
2023-01-09T07:17:24.550Z,93.92
2023-01-09T07:19:51.247Z,93.60
2023-01-09T07:22:18.309Z,93.17
2023-01-09T07:24:45.059Z,93.51
2023-01-09T07:27:12.041Z,93.74
2023-01-09T07:29:38.776Z,94.04
2023-01-09T07:32:05.496Z,93.98
2023-01-09T07:34:32.246Z,94.13
2023-01-09T07:36:58.877Z,93.86
2023-01-09T07:39:25.485Z,94.24
2023-01-09T07:41:52.181Z,94.07
2023-01-09T07:44:18.855Z,94.15
2023-01-09T07:46:45.535Z,94.11
2023-01-09T07:49:12.108Z,94.24
2023-01-09T07:51:42.989Z,94.05
2023-01-09T07:54:11.170Z,94.45
2023-01-09T07:56:37.771Z,94.29
2023-01-09T08:02:30.217Z,94.62
2023-01-09T08:04:57.108Z,95.07
2023-01-09T08:07:23.722Z,94.96
2023-01-09T08:13:38.085Z,95.24
2023-01-09T08:16:06.179Z,94.90
2023-01-09T08:18:32.727Z,95.26
2023-01-09T08:20:59.431Z,95.27
2023-01-09T08:23:27.105Z,95.26
2023-01-09T08:25:53.836Z,95.45
2023-01-09T08:28:20.500Z,95.20
2023-01-09T08:30:47.744Z,95.53
2023-01-09T08:33:16.143Z,95.21
2023-01-09T08:35:44.298Z,95.55
2023-01-09T08:38:11.393Z,95.77
2023-01-09T08:40:38.483Z,95.95
2023-01-09T08:43:24.710Z,95.91
2023-01-09T08:46:12.707Z,95.74
2023-01-09T08:48:39.428Z,95.86
2023-01-09T08:54:12.995Z,96.44
2023-01-09T08:56:41.178Z,96.33
2023-01-09T08:59:07.931Z,96.33
2023-01-09T09:01:34.678Z,96.69
2023-01-09T09:04:05.381Z,96.70
2023-01-09T09:06:35.923Z,97.08
2023-01-09T09:09:03.886Z,97.24
2023-01-09T09:11:31.137Z,97.16
2023-01-09T09:13:58.166Z,97.41
2023-01-09T09:16:26.424Z,97.83
2023-01-09T09:22:29.596Z,97.72
2023-01-09T09:25:44.825Z,97.93
2023-01-09T09:28:37.494Z,97.84
2023-01-09T09:31:10.252Z,98.08
2023-01-09T09:33:37.160Z,98.31
2023-01-09T09:36:14.169Z,98.23
2023-01-09T09:42:34.439Z,98.20
2023-01-09T09:45:25.909Z,98.29
2023-01-09T09:48:22.926Z,98.12
2023-01-09T09:51:22.740Z,98.50
2023-01-09T10:01:20.182Z,95.88
2023-01-09T10:04:16.691Z,95.45
2023-01-09T10:06:48.669Z,95.63
2023-01-09T10:12:28.941Z,95.40
2023-01-09T10:14:59.762Z,96.09
2023-01-09T10:17:51.757Z,96.02
2023-01-09T10:20:42.023Z,96.67
2023-01-09T10:23:22.124Z,96.61
2023-01-09T10:25:55.886Z,96.87
2023-01-09T10:28:59.008Z,97.46
2023-01-09T10:31:40.681Z,97.37
2023-01-09T10:34:14.673Z,97.59
2023-01-09T10:36:42.815Z,97.69
2023-01-09T10:39:18.553Z,97.77
2023-01-09T10:41:55.877Z,97.45
2023-01-09T10:44:37.305Z,96.98
2023-01-09T10:47:16.762Z,96.68
2023-01-09T10:49:45.075Z,96.24
2023-01-09T10:52:18.128Z,95.74
2023-01-09T10:54:57.091Z,95.31
2023-01-09T10:57:40.362Z,94.59
2023-01-09T11:00:14.094Z,94.26
2023-01-09T11:02:40.879Z,94.49
2023-01-09T11:05:13.922Z,93.76
2023-01-09T11:07:45.850Z,93.34
2023-01-09T11:10:17.640Z,92.95
2023-01-09T11:12:44.299Z,93.43
2023-01-09T11:16:00.473Z,93.01
2023-01-09T11:18:30.609Z,93.27
2023-01-09T11:21:14.743Z,93.29
2023-01-09T11:26:35.024Z,92.63
2023-01-09T11:29:35.354Z,92.34
2023-01-09T11:32:02.178Z,92.29
2023-01-09T11:34:33.024Z,92.34
2023-01-09T11:37:14.866Z,92.79
2023-01-09T11:39:48.172Z,93.24
2023-01-09T11:42:44.692Z,92.80
2023-01-09T11:45:17.593Z,92.97
2023-01-09T11:47:45.250Z,93.17
2023-01-09T11:50:21.164Z,93.00
2023-01-09T11:53:12.697Z,93.48
2023-01-09T11:55:42.853Z,93.76
2023-01-09T11:58:15.066Z,93.00
2023-01-09T12:01:07.156Z,93.33
2023-01-09T12:06:53.966Z,92.99
2023-01-09T12:09:55.764Z,93.18
2023-01-09T12:12:44.908Z,93.42
2023-01-09T12:15:25.009Z,93.05
2023-01-09T12:18:09.665Z,93.52
2023-01-09T12:21:02.570Z,93.60
2023-01-09T12:23:46.585Z,93.32
2023-01-09T12:26:23.344Z,93.18
2023-01-09T12:29:07.444Z,92.87
2023-01-09T12:35:22.999Z,92.33
2023-01-09T12:38:14.209Z,91.09
2023-01-09T12:41:08.352Z,90.96
2023-01-09T12:44:01.372Z,90.34
2023-01-09T12:46:42.147Z,90.52
2023-01-09T12:49:28.817Z,91.18
2023-01-09T12:52:01.706Z,91.77
2023-01-09T12:54:34.850Z,92.26
2023-01-09T12:57:07.392Z,92.57
2023-01-09T12:59:41.770Z,92.76
2023-01-09T13:02:09.324Z,93.47
2023-01-09T13:04:44.274Z,93.67
2023-01-09T13:07:20.505Z,93.58
2023-01-09T13:09:56.244Z,93.82
2023-01-09T13:12:25.194Z,93.88
2023-01-09T13:15:03.537Z,93.86
2023-01-09T13:30:51.515Z,93.46
2023-01-09T13:33:25.001Z,93.13
2023-01-09T13:35:54.999Z,92.49
2023-01-09T13:38:25.877Z,92.13
2023-01-09T13:44:04.491Z,91.18
2023-01-09T13:46:43.509Z,91.12
2023-01-09T13:49:29.700Z,90.84
2023-01-09T13:52:00.375Z,91.13
2023-01-09T13:54:48.839Z,91.13
2023-01-09T13:57:26.716Z,91.02
2023-01-09T13:59:54.539Z,90.75
2023-01-09T14:02:36.899Z,90.58
2023-01-09T14:05:12.345Z,90.11
2023-01-09T14:08:11.961Z,89.79
2023-01-09T14:10:48.571Z,89.94
2023-01-09T14:13:18.723Z,89.86
2023-01-09T14:15:47.238Z,89.79
2023-01-09T14:18:22.349Z,90.05
2023-01-09T14:20:58.404Z,90.37
2023-01-09T14:23:50.254Z,90.34
2023-01-09T14:26:23.402Z,90.39
2023-01-09T14:28:50.691Z,89.95
2023-01-09T14:31:33.125Z,89.94
2023-01-09T14:34:31.061Z,90.13
2023-01-09T14:37:01.719Z,90.24
2023-01-09T14:39:32.107Z,89.87
2023-01-09T14:42:15.824Z,89.83
2023-01-09T14:44:50.840Z,89.84
2023-01-09T14:47:38.514Z,89.23
2023-01-09T14:50:19.339Z,89.21
2023-01-09T14:52:49.926Z,88.81
2023-01-09T14:55:25.986Z,89.00
2023-01-09T14:57:55.129Z,88.20
2023-01-09T15:00:23.228Z,88.10
2023-01-09T15:02:52.982Z,87.94
2023-01-09T15:05:25.138Z,87.86
2023-01-09T15:07:56.169Z,87.68
2023-01-09T15:10:28.226Z,87.71
2023-01-09T15:12:57.426Z,88.02
2023-01-09T15:15:25.033Z,88.00
2023-01-09T15:18:10.901Z,87.49
2023-01-09T15:20:37.611Z,87.62
2023-01-09T15:23:05.512Z,88.19
2023-01-09T15:25:40.646Z,88.00
2023-01-09T15:28:26.963Z,87.85
2023-01-09T15:31:07.439Z,87.61
2023-01-09T15:33:35.475Z,87.56
2023-01-09T15:36:07.567Z,87.51
2023-01-09T15:38:36.184Z,87.50
2023-01-09T15:41:12.099Z,87.76
2023-01-09T15:43:43.255Z,87.78
2023-01-09T15:46:14.795Z,87.80
2023-01-09T15:48:41.856Z,87.84
2023-01-09T15:51:13.384Z,88.32
2023-01-09T15:53:41.604Z,87.90
2023-01-09T15:56:12.232Z,88.20
2023-01-09T15:58:40.882Z,88.18
2023-01-09T16:01:31.496Z,88.35
2023-01-09T16:04:10.176Z,88.19
2023-01-09T16:06:47.149Z,88.48
2023-01-09T16:09:21.741Z,88.51
2023-01-09T16:11:53.192Z,88.55
2023-01-09T16:14:24.972Z,88.55
2023-01-09T16:16:52.930Z,88.92
2023-01-09T16:19:51.824Z,89.03
2023-01-09T16:22:27.636Z,89.12
2023-01-09T16:24:57.706Z,89.34
2023-01-09T16:27:32.115Z,88.81
2023-01-09T16:30:03.290Z,89.23
2023-01-09T16:32:31.638Z,89.26
2023-01-09T16:35:01.004Z,89.09
2023-01-09T16:37:28.171Z,89.21
2023-01-09T16:40:18.694Z,89.46
2023-01-09T16:43:02.129Z,89.05
2023-01-09T16:45:40.805Z,89.51
2023-01-09T16:48:14.340Z,89.47
2023-01-09T16:50:42.413Z,89.92
2023-01-09T16:53:20.515Z,90.23
2023-01-09T16:55:47.234Z,90.12
2023-01-09T16:58:18.848Z,90.29
2023-01-09T17:00:45.544Z,90.51
2023-01-09T17:03:14.482Z,91.29
2023-01-09T17:05:46.081Z,90.93
2023-01-09T17:08:21.460Z,90.99
2023-01-09T17:10:48.690Z,91.39
2023-01-09T17:13:15.204Z,91.53
2023-01-09T17:15:41.862Z,91.48
2023-01-09T17:18:18.487Z,91.71
2023-01-09T17:20:48.128Z,91.71
2023-01-09T17:23:14.920Z,92.01
2023-01-09T17:26:01.624Z,92.03
2023-01-09T17:28:36.183Z,92.09
2023-01-09T17:31:07.496Z,92.54
2023-01-09T17:33:35.791Z,92.24
2023-01-09T17:36:06.356Z,92.29
2023-01-09T17:38:32.865Z,92.60
2023-01-09T17:41:00.447Z,92.30
2023-01-09T17:43:27.154Z,92.64
2023-01-09T17:45:54.797Z,93.13
2023-01-09T17:48:22.284Z,92.97
2023-01-09T17:50:49.572Z,92.92
2023-01-09T17:53:19.044Z,92.62
2023-01-09T17:55:46.667Z,93.20
2023-01-09T17:58:26.794Z,93.05
2023-01-09T18:00:54.531Z,93.10
2023-01-09T18:03:23.168Z,93.21
2023-01-09T18:05:50.096Z,93.57
2023-01-09T18:08:16.625Z,93.50
2023-01-09T18:10:45.454Z,93.53
2023-01-09T18:13:12.055Z,93.26
2023-01-09T18:15:43.630Z,93.57
2023-01-09T18:18:11.422Z,93.82
2023-01-09T18:20:41.548Z,93.30
2023-01-09T18:23:09.633Z,93.54
2023-01-09T18:25:39.373Z,93.60
2023-01-09T18:28:06.520Z,93.65
2023-01-09T18:30:33.091Z,93.42
2023-01-09T18:32:59.624Z,93.33
2023-01-09T18:35:26.100Z,93.49
2023-01-09T18:37:53.595Z,93.57
2023-01-09T18:40:20.113Z,93.85
2023-01-09T18:42:48.913Z,93.46
2023-01-09T18:45:15.563Z,93.75
2023-01-09T18:47:42.306Z,93.37
2023-01-09T18:50:09.762Z,93.47
2023-01-09T18:52:36.266Z,93.53
2023-01-09T18:55:04.142Z,93.23
2023-01-09T18:57:31.684Z,93.31
2023-01-09T18:59:58.250Z,93.64
2023-01-09T19:02:26.000Z,93.04
2023-01-09T19:04:53.334Z,93.14
2023-01-09T19:07:19.864Z,93.00
2023-01-09T19:09:46.662Z,93.46
2023-01-09T19:12:13.427Z,93.17
2023-01-09T19:14:40.136Z,93.38
2023-01-09T19:17:07.855Z,92.99
2023-01-09T19:19:34.795Z,93.00
2023-01-09T19:22:01.500Z,93.08
2023-01-09T19:24:28.205Z,93.06
2023-01-09T19:26:54.838Z,92.94
2023-01-09T19:29:21.478Z,93.08
2023-01-09T19:31:48.842Z,93.04
2023-01-09T19:34:16.161Z,93.05
2023-01-09T19:36:44.740Z,93.30
2023-01-09T19:39:11.682Z,93.41
2023-01-09T19:41:38.448Z,93.27
2023-01-09T19:44:05.337Z,93.65
2023-01-09T19:46:33.811Z,93.71
2023-01-09T19:49:04.696Z,93.41
2023-01-09T19:51:33.256Z,93.66
2023-01-09T19:56:29.798Z,93.38
2023-01-09T19:59:02.882Z,93.65
2023-01-09T20:01:32.487Z,93.15
2023-01-09T20:04:04.837Z,93.64
2023-01-09T20:06:31.947Z,93.50
2023-01-09T20:09:01.490Z,93.29
2023-01-09T20:11:30.523Z,93.00
2023-01-09T20:13:57.320Z,92.75
2023-01-09T20:16:30.604Z,92.20
2023-01-09T20:19:00.165Z,92.19
2023-01-09T20:21:28.325Z,92.02
2023-01-09T20:23:59.179Z,92.19
2023-01-09T20:26:26.431Z,91.79
2023-01-09T20:28:55.413Z,91.31
2023-01-09T20:31:24.219Z,91.29
2023-01-09T20:33:51.352Z,91.26
2023-01-09T20:36:19.517Z,91.55
2023-01-09T20:38:50.006Z,90.97
2023-01-09T20:41:23.606Z,91.30
2023-01-09T20:43:52.130Z,90.96
2023-01-09T20:46:22.275Z,90.75
2023-01-09T20:48:49.589Z,90.59
2023-01-09T20:51:16.695Z,90.43
2023-01-09T20:53:55.634Z,90.87
2023-01-09T20:56:25.567Z,90.68
2023-01-09T20:58:53.037Z,90.58
2023-01-09T21:01:20.259Z,90.96
2023-01-09T21:03:47.013Z,90.96
2023-01-09T21:06:16.112Z,91.07
2023-01-09T21:08:46.042Z,91.36
2023-01-09T21:11:14.170Z,91.34
2023-01-09T21:13:41.388Z,91.24
2023-01-09T21:16:14.677Z,91.25
2023-01-09T21:18:43.339Z,91.31
2023-01-09T21:21:14.411Z,91.06
2023-01-09T21:23:46.832Z,91.02
2023-01-09T21:26:15.280Z,90.82
2023-01-09T21:28:49.214Z,91.04
2023-01-09T21:31:19.553Z,90.70
2023-01-09T21:33:47.517Z,90.72
2023-01-09T21:36:14.474Z,90.59
2023-01-09T21:38:42.261Z,90.32
2023-01-09T21:41:27.352Z,90.07
2023-01-09T21:44:12.341Z,90.28
2023-01-09T21:46:51.997Z,90.06
2023-01-09T21:49:20.831Z,89.82
2023-01-09T21:51:47.780Z,89.54
2023-01-09T21:54:14.620Z,89.54
2023-01-09T21:56:41.417Z,89.53
2023-01-09T21:59:08.376Z,89.29
2023-01-09T22:01:34.993Z,89.35
2023-01-09T22:04:01.682Z,89.45
2023-01-09T22:06:29.358Z,89.27
2023-01-09T22:08:56.339Z,89.01
2023-01-09T22:11:23.117Z,89.42
2023-01-09T22:13:50.983Z,89.25
2023-01-09T22:16:18.399Z,89.12
2023-01-09T22:18:45.057Z,89.39
2023-01-09T22:21:11.971Z,89.22
2023-01-09T22:23:38.663Z,89.13
2023-01-09T22:26:10.282Z,89.24
2023-01-09T22:28:37.068Z,89.73
2023-01-09T22:31:08.435Z,89.70
2023-01-09T22:33:35.268Z,90.15
2023-01-09T22:36:08.765Z,90.14
2023-01-09T22:38:35.709Z,90.33
2023-01-09T22:41:02.874Z,90.15
2023-01-09T22:43:29.952Z,90.50
2023-01-09T22:46:01.490Z,90.13
2023-01-09T22:48:31.395Z,90.40
2023-01-09T22:51:00.663Z,90.49
2023-01-09T22:53:29.441Z,90.65
2023-01-09T22:55:58.175Z,90.82
2023-01-09T22:58:27.009Z,90.73
2023-01-09T23:00:54.099Z,90.61
2023-01-09T23:03:20.788Z,90.28
2023-01-09T23:05:47.399Z,90.53
2023-01-09T23:08:14.612Z,90.34
2023-01-09T23:10:41.930Z,90.52
2023-01-09T23:13:08.662Z,90.59
2023-01-09T23:15:35.373Z,90.75
2023-01-09T23:18:01.988Z,90.64
2023-01-09T23:20:28.634Z,91.06
2023-01-09T23:22:56.260Z,90.87
2023-01-09T23:25:23.832Z,90.91
2023-01-09T23:27:50.540Z,90.83
2023-01-09T23:30:17.240Z,90.63
2023-01-09T23:32:44.875Z,90.29
2023-01-09T23:35:11.538Z,90.58
2023-01-09T23:37:38.411Z,90.43
2023-01-09T23:40:05.582Z,90.11
2023-01-09T23:42:50.677Z,90.50
2023-01-09T23:45:17.313Z,89.92
2023-01-09T23:47:43.946Z,90.29
2023-01-09T23:50:11.974Z,90.08
2023-01-09T23:52:38.607Z,90.23
2023-01-09T23:55:05.816Z,90.08
2023-01-09T23:57:32.457Z,90.07
2023-01-09T23:59:59.113Z,90.08
